createdAt,value
2022-12-14T00:01:48.683Z,-0.06
2022-12-14T00:16:35.949Z,0.03
2022-12-14T00:31:26.260Z,0.10
2022-12-14T00:46:15.720Z,0.15
2022-12-14T01:01:04.915Z,0.18
2022-12-14T01:15:54.045Z,0.25
2022-12-14T01:30:43.642Z,0.32
2022-12-14T01:45:33.317Z,0.33
2022-12-14T02:00:27.474Z,0.27
2022-12-14T02:15:20.030Z,0.30
2022-12-14T02:30:15.594Z,0.35
2022-12-14T02:45:17.311Z,0.37
2022-12-14T03:00:11.326Z,0.36
2022-12-14T03:15:01.693Z,0.38
2022-12-14T03:29:51.586Z,0.42
2022-12-14T03:44:49.311Z,0.40
2022-12-14T03:59:43.360Z,0.46
2022-12-14T04:14:54.086Z,0.47
2022-12-14T04:29:58.200Z,0.42
2022-12-14T04:44:52.486Z,0.40
2022-12-14T04:59:42.454Z,0.37
2022-12-14T05:14:37.339Z,0.33
2022-12-14T05:29:31.476Z,0.40
2022-12-14T05:44:21.324Z,0.43
2022-12-14T05:59:10.976Z,0.32
2022-12-14T06:14:01.545Z,0.32
2022-12-14T06:28:51.197Z,0.27
2022-12-14T06:58:32.609Z,0.15
2022-12-14T07:13:21.202Z,0.17
2022-12-14T07:28:11.320Z,0.28
2022-12-14T07:43:01.757Z,0.19
2022-12-14T07:57:50.830Z,0.30
2022-12-14T08:12:40.402Z,0.25
2022-12-14T08:27:30.345Z,0.31
2022-12-14T08:42:20.326Z,0.25
2022-12-14T08:57:10.079Z,0.28
2022-12-14T09:12:00.271Z,0.25
2022-12-14T09:26:49.855Z,0.21
2022-12-14T09:41:45.344Z,0.13
2022-12-14T09:56:38.096Z,0.14
2022-12-14T10:11:30.161Z,0.18
2022-12-14T10:26:22.360Z,0.22
2022-12-14T10:41:32.995Z,0.35
2022-12-14T10:56:27.829Z,0.38
2022-12-14T11:11:21.470Z,0.57
2022-12-14T11:26:15.586Z,0.48
2022-12-14T11:41:11.858Z,0.44
2022-12-14T11:55:57.549Z,0.25
2022-12-14T12:10:49.954Z,0.14
2022-12-14T12:25:37.894Z,0.26
2022-12-14T12:40:30.030Z,0.22
2022-12-14T12:55:22.825Z,0.31
2022-12-14T13:10:34.118Z,0.25
2022-12-14T13:25:50.388Z,0.34
2022-12-14T13:40:57.596Z,0.22
2022-12-14T13:56:00.401Z,0.15
2022-12-14T14:11:20.571Z,0.21
2022-12-14T14:25:48.691Z,0.35
2022-12-14T14:41:14.734Z,0.31
2022-12-14T15:10:24.389Z,0.27
2022-12-14T15:25:17.511Z,0.28
2022-12-14T15:40:15.823Z,0.18
2022-12-14T15:55:09.265Z,0.14
2022-12-14T16:10:00.163Z,0.16
2022-12-14T16:24:56.901Z,0.26
2022-12-14T16:39:49.623Z,0.21
2022-12-14T16:54:39.020Z,0.09
2022-12-14T17:09:28.685Z,0.18
2022-12-14T17:24:18.686Z,0.31
2022-12-14T17:39:08.876Z,0.27
2022-12-14T17:53:58.653Z,0.32
2022-12-14T18:08:51.012Z,0.28
2022-12-14T18:23:43.312Z,0.14
2022-12-14T18:38:32.261Z,0.06
2022-12-14T18:53:22.679Z,0.13
2022-12-14T19:08:12.959Z,0.12
2022-12-14T19:23:02.909Z,-0.01
2022-12-14T19:37:54.770Z,0.11
2022-12-14T19:52:47.017Z,0.14
2022-12-14T20:07:43.335Z,-0.01
2022-12-14T20:22:26.682Z,0.03
2022-12-14T20:37:16.085Z,-0.03
2022-12-14T20:52:06.694Z,-0.03
2022-12-14T21:06:56.479Z,-0.07
2022-12-14T21:21:53.034Z,-0.11
2022-12-14T21:36:36.545Z,0.02
2022-12-14T21:51:25.748Z,0.01
2022-12-14T22:06:14.947Z,-0.14
2022-12-14T22:21:04.854Z,-0.10
2022-12-14T22:35:53.626Z,-0.28
2022-12-14T22:50:43.150Z,-0.23
2022-12-14T23:05:33.738Z,-0.27
2022-12-14T23:20:44.346Z,-0.23
2022-12-14T23:35:58.164Z,-0.24
2022-12-14T23:51:10.796Z,-0.27
